Time;durP1;ratioP1;P1;durP2;ratioP2;P2;SDS_P1;SDS_P2;PMS_P1;PMS_P2;Temp;Humidity;BMP_temperature;BMP_pressure;BME280_temperature;BME280_humidity;BME280_pressure;Samples;Min_cycle;Max_cycle;Signal;HPM_P1;HPM_P2
2021/04/19 00:00:47;;;;;;;;;;;;;;;18.22;61.00;101280.44;4841420;29;789;-69
2021/04/19 00:03:14;;;;;;;;;;;;;;;18.21;61.00;101284.03;4840042;29;1256;-68
2021/04/19 00:05:41;;;;;;;;;;;;;;;18.21;60.81;101282.22;4841082;29;1986;-69
2021/04/19 00:08:07;;;;;;;;;;;;;;;18.21;60.74;101284.84;4840071;29;1184;-69
2021/04/19 00:10:34;;;;;;;;;;;;;;;18.22;60.74;101280.44;4841601;29;795;-69
2021/04/19 00:13:00;;;;;;;;;;;;;;;18.22;60.83;101280.44;4839640;29;1295;-69
2021/04/19 00:15:27;;;;;;;;;;;;;;;18.21;60.80;101276.94;4840061;29;860;-68
2021/04/19 00:17:54;;;;;;;;;;;;;;;18.21;60.72;101273.47;4841162;29;1322;-68
2021/04/19 00:20:20;;;;;;;;;;;;;;;18.21;60.91;101268.22;4840899;29;1062;-69
2021/04/19 00:22:46;;;;;;;;;;;;;;;18.21;60.53;101265.56;4840776;29;1324;-68
2021/04/19 00:25:13;;;;;;;;;;;;;;;18.20;60.51;101271.75;4840530;29;1919;-69
2021/04/19 00:27:39;;;;;;;;;;;;;;;18.22;60.52;101259.34;4839443;29;1496;-68
2021/04/19 00:30:07;;;;;;;;;;;;;;;18.21;60.51;101257.66;4839170;29;1376;-68
2021/04/19 00:32:33;;;;;;;;;;;;;;;18.21;60.53;101260.31;4840718;29;1225;-68
2021/04/19 00:34:59;;;;;;;;;;;;;;;18.21;60.55;101255.03;4840776;29;802;-68
2021/04/19 00:37:26;;;;;;;;;;;;;;;18.20;60.58;101248.88;4840606;29;1325;-69
2021/04/19 00:39:52;;;;;;;;;;;;;;;18.20;60.22;101248.88;4840590;29;879;-68
2021/04/19 00:42:19;;;;;;;;;;;;;;;18.20;60.29;101243.63;4838753;29;1722;-68
2021/04/19 00:44:46;;;;;;;;;;;;;;;18.20;60.47;101248.03;4840274;29;1919;-68
2021/04/19 00:47:13;;;;;;;;;;;;;;;18.20;60.39;101243.63;4840044;29;1223;-69
2021/04/19 00:49:40;;;;;;;;;;;;;;;18.19;60.16;101233.13;4839251;29;852;-68
2021/04/19 00:52:07;;;;;;;;;;;;;;;18.20;60.40;101226.94;4839982;29;1313;-68
2021/04/19 00:54:33;;;;;;;;;;;;;;;18.20;60.41;101227.78;4839065;29;783;-69
2021/04/19 00:57:00;;;;;;;;;;;;;;;18.19;60.39;101215.53;4840020;29;1320;-69
2021/04/19 00:59:26;;;;;;;;;;;;;;;18.20;60.25;101216.38;4839412;29;844;-69
2021/04/19 01:01:52;;;;;;;;;;;;;;;18.21;60.36;101223.38;4840206;29;1249;-70
2021/04/19 01:04:19;;;;;;;;;;;;;;;18.20;60.21;101209.34;4839580;29;1919;-67
2021/04/19 01:06:46;;;;;;;;;;;;;;;18.20;60.33;101205.84;4838698;29;1261;-68
2021/04/19 01:09:12;;;;;;;;;;;;;;;18.21;60.24;101202.28;4840553;29;1030;-68
2021/04/19 01:11:39;;;;;;;;;;;;;;;18.20;60.34;101209.34;4840065;29;1367;-70
2021/04/19 01:14:05;;;;;;;;;;;;;;;18.20;60.10;101208.47;4839898;29;1185;-70
2021/04/19 01:16:31;;;;;;;;;;;;;;;18.20;60.05;101200.56;4838485;29;1333;-69
2021/04/19 01:18:58;;;;;;;;;;;;;;;18.20;60.29;101200.56;4833765;29;1457;-69
2021/04/19 01:21:24;;;;;;;;;;;;;;;18.20;60.10;101195.28;4821560;29;1276;-69
2021/04/19 01:23:51;;;;;;;;;;;;;;;18.20;59.90;101195.28;4819545;29;1998;-68
2021/04/19 01:26:17;;;;;;;;;;;;;;;18.20;60.07;101192.66;4819125;29;1313;-68
2021/04/19 01:28:52;;;;;;;;;;;;;;;18.20;60.21;101187.38;4820035;29;1250;-67
2021/04/19 01:31:18;;;;;;;;;;;;;;;18.21;60.19;101191.75;4820931;29;1282;-68
2021/04/19 01:33:45;;;;;;;;;;;;;;;18.19;59.86;101189.16;4821717;29;908;-69
2021/04/19 01:36:12;;;;;;;;;;;;;;;18.19;60.09;101194.44;4819664;29;1728;-68
2021/04/19 01:38:38;;;;;;;;;;;;;;;18.20;60.17;101187.38;4820126;29;933;-68
2021/04/19 01:41:05;;;;;;;;;;;;;;;18.21;59.98;101187.28;4819973;29;1290;-68
2021/04/19 01:43:34;;;;;;;;;;;;;;;18.21;59.96;101184.66;4820100;29;1745;-68
2021/04/19 01:46:01;;;;;;;;;;;;;;;18.21;60.09;101186.47;4821528;29;1907;-68
2021/04/19 01:48:28;;;;;;;;;;;;;;;18.21;60.08;101189.09;4819743;29;1243;-68
2021/04/19 01:50:57;;;;;;;;;;;;;;;18.21;60.02;101186.47;4819807;29;797;-69
2021/04/19 01:53:23;;;;;;;;;;;;;;;18.20;59.98;101185.59;4821195;29;1267;-67
2021/04/19 01:55:49;;;;;;;;;;;;;;;18.20;59.93;101185.59;4821316;29;743;-68
2021/04/19 01:58:17;;;;;;;;;;;;;;;18.19;60.05;101172.47;4820841;29;1241;-68
2021/04/19 02:00:47;;;;;;;;;;;;;;;18.19;59.98;101181.25;4820936;29;785;-68
2021/04/19 02:03:13;;;;;;;;;;;;;;;18.19;59.77;101183.03;4819374;29;1595;-69
2021/04/19 02:05:47;;;;;;;;;;;;;;;18.19;59.94;101180.38;4819508;29;2042;-69
2021/04/19 02:08:48;;;;;;;;;;;;;;;18.19;59.99;101188.31;4821064;29;1214;-68
2021/04/19 02:11:33;;;;;;;;;;;;;;;18.18;59.86;101178.69;4799924;29;1475;-68
2021/04/19 02:14:09;;;;;;;;;;;;;;;18.20;59.94;101176.84;4819473;29;1110;-68
2021/04/19 02:16:35;;;;;;;;;;;;;;;18.18;59.64;101181.34;4820071;29;1328;-68
2021/04/19 02:19:09;;;;;;;;;;;;;;;18.18;59.77;101182.16;4820865;29;1270;-68
2021/04/19 02:21:39;;;;;;;;;;;;;;;18.18;59.80;101181.34;4820910;29;1250;-68
2021/04/19 02:24:08;;;;;;;;;;;;;;;18.18;59.78;101182.16;4820422;29;1986;-68
2021/04/19 02:26:38;;;;;;;;;;;;;;;18.18;59.82;101176.06;4820583;29;1285;-68
2021/04/19 02:29:09;;;;;;;;;;;;;;;18.18;59.79;101179.53;4819263;29;1183;-68
2021/04/19 02:31:38;;;;;;;;;;;;;;;18.18;59.87;101178.69;4820769;29;1300;-68
2021/04/19 02:34:13;;;;;;;;;;;;;;;18.19;59.84;101175.13;4820848;29;1286;-68
2021/04/19 02:36:45;;;;;;;;;;;;;;;18.19;59.82;101175.13;4820487;29;1271;-68
2021/04/19 02:39:12;;;;;;;;;;;;;;;18.12;59.53;101160.53;4818915;29;1601;-68
2021/04/19 02:41:41;;;;;;;;;;;;;;;18.17;59.65;101169.94;4820291;29;1337;-68
2021/04/19 02:44:08;;;;;;;;;;;;;;;18.18;59.55;101168.16;4820705;29;1935;-68
2021/04/19 02:46:35;;;;;;;;;;;;;;;18.18;59.81;101168.97;4820156;29;1328;-68
2021/04/19 02:49:03;;;;;;;;;;;;;;;18.18;59.67;101165.53;4820194;29;1007;-68
2021/04/19 02:51:30;;;;;;;;;;;;;;;18.18;59.77;101168.16;4820652;29;1239;-66
2021/04/19 02:53:57;;;;;;;;;;;;;;;18.18;59.78;101170.78;4819344;29;1393;-67
2021/04/19 02:56:23;;;;;;;;;;;;;;;18.18;59.83;101165.53;4820418;29;1290;-67
2021/04/19 02:58:55;;;;;;;;;;;;;;;18.18;59.51;101162.88;4820557;29;1145;-68
2021/04/19 03:01:24;;;;;;;;;;;;;;;18.17;59.37;101158.53;4820311;29;1376;-69
2021/04/19 03:03:53;;;;;;;;;;;;;;;18.17;59.74;101166.44;4820556;29;905;-68
2021/04/19 03:06:19;;;;;;;;;;;;;;;18.18;59.67;101160.25;4820015;29;1243;-67
2021/04/19 03:08:50;;;;;;;;;;;;;;;18.19;59.79;101167.22;4820789;29;1079;-68
2021/04/19 03:11:20;;;;;;;;;;;;;;;18.19;59.68;101156.66;4820512;29;1340;-67
2021/04/19 03:13:47;;;;;;;;;;;;;;;18.18;59.65;101154.97;4819934;29;1497;-67
2021/04/19 03:16:13;;;;;;;;;;;;;;;18.17;59.66;101159.38;4820136;29;1234;-67
2021/04/19 03:18:40;;;;;;;;;;;;;;;18.18;59.49;101153.16;4820372;29;1048;-67
2021/04/19 03:21:14;;;;;;;;;;;;;;;18.17;59.50;101155.88;4819913;29;1254;-67
2021/04/19 03:23:50;;;;;;;;;;;;;;;18.16;59.57;101152.41;4819765;29;997;-67
2021/04/19 03:26:17;;;;;;;;;;;;;;;18.16;59.36;101148.91;4820827;29;1964;-67
2021/04/19 03:28:47;;;;;;;;;;;;;;;18.16;59.48;101149.75;4823307;29;911;-68
2021/04/19 03:31:30;;;;;;;;;;;;;;;18.17;59.36;101143.56;4823293;29;1314;-68
2021/04/19 03:33:59;;;;;;;;;;;;;;;18.16;59.35;101141.00;4823672;29;1258;-68
2021/04/19 03:36:27;;;;;;;;;;;;;;;18.17;59.48;101150.63;4822072;29;1231;-67
2021/04/19 03:38:53;;;;;;;;;;;;;;;18.17;59.64;101142.72;4823675;29;1020;-67
2021/04/19 03:41:20;;;;;;;;;;;;;;;18.17;59.40;101140.06;4823167;29;1446;-67
2021/04/19 03:43:51;;;;;;;;;;;;;;;18.16;59.40;101141.84;4822214;29;1051;-67
2021/04/19 03:46:18;;;;;;;;;;;;;;;18.17;59.50;101132.16;4823287;29;1944;-67
2021/04/19 03:48:45;;;;;;;;;;;;;;;18.16;59.46;101133.94;4821459;29;1243;-67
2021/04/19 03:51:15;;;;;;;;;;;;;;;18.16;59.37;101130.44;4821622;29;1318;-68
2021/04/19 03:53:42;;;;;;;;;;;;;;;18.15;59.20;101134.84;4823133;29;966;-68
2021/04/19 03:56:10;;;;;;;;;;;;;;;18.11;59.21;101122.78;4822964;29;1234;-67
2021/04/19 03:58:37;;;;;;;;;;;;;;;18.17;59.31;101126.88;4822845;29;1145;-69
2021/04/19 04:01:05;;;;;;;;;;;;;;;18.16;59.19;101125.16;4823127;29;1270;-69
2021/04/19 04:03:32;;;;;;;;;;;;;;;18.15;59.06;101120.84;4823076;29;833;-68
2021/04/19 04:06:00;;;;;;;;;;;;;;;18.16;59.13;101117.25;4822378;29;1907;-68
2021/04/19 04:08:27;;;;;;;;;;;;;;;18.15;59.14;101118.22;4823060;29;888;-67
2021/04/19 04:10:54;;;;;;;;;;;;;;;18.14;59.03;101114.72;4822654;29;1565;-67
2021/04/19 04:13:21;;;;;;;;;;;;;;;18.14;59.03;101117.34;4822541;29;1241;-67
2021/04/19 04:15:50;;;;;;;;;;;;;;;18.14;58.79;101112.06;4822880;29;924;-69
2021/04/19 04:18:17;;;;;;;;;;;;;;;18.14;59.02;101113.84;4822601;29;1538;-68
2021/04/19 04:20:44;;;;;;;;;;;;;;;18.14;58.89;101113.84;4822637;29;1131;-67
2021/04/19 04:23:10;;;;;;;;;;;;;;;18.14;58.92;101112.06;4822521;29;1225;-67
2021/04/19 04:25:37;;;;;;;;;;;;;;;18.13;58.70;101112.13;4821001;29;1911;-67
2021/04/19 04:28:04;;;;;;;;;;;;;;;18.14;58.78;101114.72;4822374;29;1293;-68
2021/04/19 04:30:33;;;;;;;;;;;;;;;18.14;58.71;101114.72;4821036;29;1325;-67
2021/04/19 04:32:59;;;;;;;;;;;;;;;18.15;58.68;101110.28;4820732;29;1251;-68
2021/04/19 04:35:25;;;;;;;;;;;;;;;18.14;58.54;101114.72;4822418;29;972;-69
2021/04/19 04:37:51;;;;;;;;;;;;;;;18.14;58.66;101111.22;4821450;29;1335;-69
2021/04/19 04:40:18;;;;;;;;;;;;;;;18.13;58.78;101113.00;4821831;29;1037;-70
2021/04/19 04:42:45;;;;;;;;;;;;;;;18.14;58.55;101111.22;4821423;29;1713;-69
2021/04/19 04:45:12;;;;;;;;;;;;;;;18.13;58.60;101118.25;4822579;29;1903;-69
2021/04/19 04:47:58;;;;;;;;;;;;;;;18.14;58.68;101127.03;4821900;29;1258;-69
2021/04/19 04:50:54;;;;;;;;;;;;;;;18.13;58.54;101125.31;4822256;29;1202;-69
2021/04/19 04:53:56;;;;;;;;;;;;;;;18.13;58.37;101118.25;4816151;29;1293;-67
2021/04/19 04:56:23;;;;;;;;;;;;;;;18.12;58.32;101124.47;4801147;29;1317;-67
2021/04/19 04:58:52;;;;;;;;;;;;;;;18.14;58.30;101119.97;4802269;29;1213;-67
2021/04/19 05:01:20;;;;;;;;;;;;;;;18.14;58.23;101121.75;4803621;29;1215;-67
2021/04/19 05:03:47;;;;;;;;;;;;;;;18.13;57.95;101117.41;4803904;29;722;-67
2021/04/19 05:06:14;;;;;;;;;;;;;;;18.13;58.03;101120.91;4803775;29;1969;-65
2021/04/19 05:08:41;;;;;;;;;;;;;;;18.13;58.01;101120.03;4818360;29;793;-68
2021/04/19 05:11:08;;;;;;;;;;;;;;;18.13;58.35;101115.63;4805540;29;1316;-68
2021/04/19 05:13:34;;;;;;;;;;;;;;;18.13;57.92;101122.69;4820776;29;1557;-67
2021/04/19 05:16:01;;;;;;;;;;;;;;;18.14;57.93;101121.75;4821312;29;1349;-68
2021/04/19 05:18:28;;;;;;;;;;;;;;;18.13;57.85;101120.03;4821700;29;800;-68
2021/04/19 05:20:55;;;;;;;;;;;;;;;18.16;59.58;101114.63;4819616;29;1194;-69
2021/04/19 05:23:21;;;;;;;;;;;;;;;18.15;58.56;101118.22;4820700;29;1628;-69
2021/04/19 05:25:48;;;;;;;;;;;;;;;18.14;58.58;101127.03;4820803;29;1919;-70
2021/04/19 05:28:14;;;;;;;;;;;;;;;18.13;58.69;101127.94;4819051;29;1294;-70
2021/04/19 05:30:42;;;;;;;;;;;;;;;18.11;58.57;101128.03;4820759;29;1172;-70
2021/04/19 05:33:09;;;;;;;;;;;;;;;18.13;60.65;101126.19;4820669;29;1246;-68
2021/04/19 05:35:36;;;;;;;;;;;;;;;18.26;60.53;101132.56;4819941;29;1565;-72
2021/04/19 05:38:03;;;;;;;;;;;;;;;18.24;60.88;101138.84;4803574;29;1157;-66
2021/04/19 05:40:31;;;;;;;;;;;;;;;18.21;62.27;101133.72;4820516;29;1076;-66
2021/04/19 05:42:57;;;;;;;;;;;;;;;18.17;61.14;101146.19;4817991;29;1495;-66
2021/04/19 05:45:24;;;;;;;;;;;;;;;18.15;60.35;101142.75;4818734;29;1911;-68
2021/04/19 05:47:50;;;;;;;;;;;;;;;18.20;60.48;101142.56;4819227;29;1379;-69
2021/04/19 05:50:22;;;;;;;;;;;;;;;18.19;59.36;101149.59;4818867;29;1679;-67
2021/04/19 05:52:50;;;;;;;;;;;;;;;18.22;61.38;101141.53;4817771;29;1391;-69
2021/04/19 05:55:18;;;;;;;;;;;;;;;18.25;59.57;101154.59;4818093;29;1143;-67
2021/04/19 05:58:03;;;;;;;;;;;;;;;18.21;61.50;101157.47;4818579;29;1255;-72
2021/04/19 06:00:29;;;;;;;;;;;;;;;18.22;59.91;101156.50;4820777;29;1636;-66
2021/04/19 06:03:05;;;;;;;;;;;;;;;18.10;56.74;101157.97;4820837;29;1329;-69
2021/04/19 06:05:38;;;;;;;;;;;;;;;17.82;54.79;101153.13;4819286;29;1972;-66
2021/04/19 06:08:13;;;;;;;;;;;;;;;17.76;53.77;101158.69;4819224;29;1616;-69
2021/04/19 06:10:43;;;;;;;;;;;;;;;17.62;53.18;101150.56;4819681;29;1868;-67
2021/04/19 06:13:10;;;;;;;;;;;;;;;17.73;55.08;101155.34;4819681;29;1722;-67
2021/04/19 06:15:36;;;;;;;;;;;;;;;17.81;54.24;101158.50;4818082;29;1793;-67
2021/04/19 06:18:03;;;;;;;;;;;;;;;17.89;57.01;101164.25;4817157;29;1646;-68
2021/04/19 06:20:34;;;;;;;;;;;;;;;17.96;59.56;101158.59;4818759;29;1706;-67
2021/04/19 06:23:00;;;;;;;;;;;;;;;17.96;58.80;101157.78;4818732;29;1300;-67
2021/04/19 06:25:27;;;;;;;;;;;;;;;17.95;58.15;101159.53;4817925;29;1911;-67
2021/04/19 06:28:00;;;;;;;;;;;;;;;17.95;58.88;101159.53;4818098;29;1622;-67
2021/04/19 06:30:30;;;;;;;;;;;;;;;17.96;58.94;101157.78;4817751;29;1195;-68
2021/04/19 06:32:56;;;;;;;;;;;;;;;17.95;59.28;101159.53;4819518;29;1317;-69
2021/04/19 06:35:23;;;;;;;;;;;;;;;17.94;59.07;101152.56;4819180;29;1030;-67
2021/04/19 06:37:54;;;;;;;;;;;;;;;17.95;59.23;101154.28;4817885;29;1351;-68
2021/04/19 06:40:26;;;;;;;;;;;;;;;17.95;59.50;101161.31;4819939;29;844;-66
2021/04/19 06:42:53;;;;;;;;;;;;;;;17.96;59.29;101155.97;4817640;29;1460;-66
2021/04/19 06:45:20;;;;;;;;;;;;;;;18.04;59.85;101158.25;4819076;29;2018;-63
2021/04/19 06:47:47;;;;;;;;;;;;;;;18.06;59.04;101155.53;4818813;29;1273;-68
2021/04/19 06:50:13;;;;;;;;;;;;;;;18.11;59.87;101150.91;4818850;29;809;-72
2021/04/19 06:52:47;;;;;;;;;;;;;;;18.03;59.26;101152.13;4822267;29;1297;-76
2021/04/19 06:55:18;;;;;;;;;;;;;;;18.00;59.08;101148.78;4822598;29;884;-78
2021/04/19 06:57:45;;;;;;;;;;;;;;;18.00;58.79;101147.00;4822852;29;1539;-79
2021/04/19 07:00:12;;;;;;;;;;;;;;;18.00;59.45;101152.25;4821810;29;750;-78
2021/04/19 07:02:43;;;;;;;;;;;;;;;18.09;60.66;101150.13;4821987;29;1270;-67
2021/04/19 07:05:11;;;;;;;;;;;;;;;18.03;59.67;101144.22;4819983;29;1911;-69
2021/04/19 07:07:45;;;;;;;;;;;;;;;18.01;59.55;101142.59;4819871;29;1269;-69
2021/04/19 07:10:12;;;;;;;;;;;;;;;17.99;59.29;101142.63;4819201;29;1014;-69
2021/04/19 07:12:41;;;;;;;;;;;;;;;18.00;60.32;101144.34;4819546;29;1356;-65
2021/04/19 07:15:08;;;;;;;;;;;;;;;17.95;60.08;101140.25;4819163;29;856;-66
2021/04/19 07:17:35;;;;;;;;;;;;;;;18.03;60.06;101141.56;4819241;29;1389;-71
2021/04/19 07:20:06;;;;;;;;;;;;;;;18.11;59.49;101135.09;4817953;29;1740;-67
2021/04/19 07:22:35;;;;;;;;;;;;;;;18.11;59.34;101137.72;4826374;29;1274;-66
2021/04/19 07:25:01;;;;;;;;;;;;;;;18.03;59.95;101135.44;4829116;29;1914;-66
2021/04/19 07:27:28;;;;;;;;;;;;;;;18.01;60.26;101132.91;4835875;29;1284;-70
2021/04/19 07:29:55;;;;;;;;;;;;;;;17.97;60.00;101136.59;4820766;29;1146;-70
2021/04/19 07:32:38;;;;;;;;;;;;;;;17.94;59.86;101139.38;4818582;29;1363;-68
2021/04/19 07:35:05;;;;;;;;;;;;;;;17.94;59.77;101134.09;4818746;29;837;-69
2021/04/19 07:37:33;;;;;;;;;;;;;;;17.92;59.98;101133.34;4826956;29;1284;-68
2021/04/19 07:40:00;;;;;;;;;;;;;;;17.91;59.69;101123.72;4835201;29;838;-68
2021/04/19 07:42:26;;;;;;;;;;;;;;;17.93;60.65;101129.75;4836234;29;1869;-67
2021/04/19 07:44:54;;;;;;;;;;;;;;;17.99;60.99;101134.72;4834623;29;1911;-68
2021/04/19 07:47:22;;;;;;;;;;;;;;;18.04;60.87;101137.16;4836492;29;1302;-68
2021/04/19 07:50:07;;;;;;;;;;;;;;;18.04;60.41;101142.44;4836477;29;1086;-64
2021/04/19 07:52:37;;;;;;;;;;;;;;;17.99;60.07;101132.09;4836566;29;1308;-64
2021/04/19 07:55:03;;;;;;;;;;;;;;;17.94;60.24;101131.47;4822928;29;2068;-65
2021/04/19 07:57:30;;;;;;;;;;;;;;;17.97;60.45;101126.06;4818371;29;1250;-65
2021/04/19 07:59:56;;;;;;;;;;;;;;;18.01;60.04;101138.16;4818422;29;747;-66
2021/04/19 08:02:22;;;;;;;;;;;;;;;17.99;59.58;101137.38;4818292;29;1303;-64
2021/04/19 08:04:50;;;;;;;;;;;;;;;17.96;59.40;101134.06;4817890;29;1915;-66
2021/04/19 08:07:29;;;;;;;;;;;;;;;17.97;60.04;101135.72;4817570;29;1520;-65
2021/04/19 08:09:55;;;;;;;;;;;;;;;17.96;59.40;101129.59;4817940;29;971;-65
2021/04/19 08:12:32;;;;;;;;;;;;;;;17.94;59.32;101126.19;4818356;29;1222;-63
2021/04/19 08:14:58;;;;;;;;;;;;;;;17.94;59.39;101123.56;4821197;29;1115;-64
2021/04/19 08:17:29;;;;;;;;;;;;;;;17.95;59.58;101129.69;4821423;29;1385;-67
2021/04/19 08:19:58;;;;;;;;;;;;;;;17.93;59.50;101140.28;4819538;29;1347;-64
2021/04/19 08:22:26;;;;;;;;;;;;;;;17.94;59.39;101142.00;4820868;29;1369;-63
2021/04/19 08:25:07;;;;;;;;;;;;;;;17.95;59.43;101138.47;4821349;29;1982;-65
2021/04/19 08:28:05;;;;;;;;;;;;;;;17.95;60.51;101135.81;4823950;29;1464;-64
2021/04/19 08:30:33;;;;;;;;;;;;;;;17.97;59.52;101130.47;4838028;29;1298;-64
2021/04/19 08:32:59;;;;;;;;;;;;;;;17.95;59.54;101134.97;4839488;29;1255;-65
2021/04/19 08:35:26;;;;;;;;;;;;;;;17.95;59.32;101127.91;4839086;29;931;-65
2021/04/19 08:37:55;;;;;;;;;;;;;;;17.98;59.23;101137.47;4837320;29;1630;-64
2021/04/19 08:40:23;;;;;;;;;;;;;;;17.99;59.52;101140.00;4839266;29;890;-65
2021/04/19 08:42:53;;;;;;;;;;;;;;;17.96;59.52;101132.25;4837975;29;1592;-64
2021/04/19 08:45:20;;;;;;;;;;;;;;;17.97;59.30;101139.22;4838921;29;1992;-64
2021/04/19 08:47:46;;;;;;;;;;;;;;;17.95;59.29;101133.19;4839233;29;1310;-64
2021/04/19 08:50:18;;;;;;;;;;;;;;;17.97;59.33;101135.72;4838835;29;865;-64
2021/04/19 08:52:44;;;;;;;;;;;;;;;17.97;59.50;101131.31;4838505;29;1266;-64
2021/04/19 08:55:13;;;;;;;;;;;;;;;17.98;59.61;101127.78;4839058;29;792;-64
2021/04/19 08:57:41;;;;;;;;;;;;;;;17.99;59.45;101132.09;4839349;29;1357;-63
2021/04/19 09:00:08;;;;;;;;;;;;;;;17.99;59.44;101132.09;4839116;29;817;-62
2021/04/19 09:02:34;;;;;;;;;;;;;;;17.98;59.30;101126.91;4838803;29;1357;-63
2021/04/19 09:05:04;;;;;;;;;;;;;;;17.96;59.41;101126.13;4838786;29;1927;-66
2021/04/19 09:07:31;;;;;;;;;;;;;;;17.96;59.38;101124.34;4837087;29;1283;-64
2021/04/19 09:09:58;;;;;;;;;;;;;;;17.95;59.50;101120.00;4838375;29;1173;-66
2021/04/19 09:12:27;;;;;;;;;;;;;;;17.93;59.47;101128.91;4837243;29;1309;-64
2021/04/19 09:15:12;;;;;;;;;;;;;;;17.92;59.69;101117.53;4838420;29;796;-64
2021/04/19 09:17:39;;;;;;;;;;;;;;;17.93;59.51;101124.47;4838500;29;1489;-64
2021/04/19 09:20:08;;;;;;;;;;;;;;;17.92;59.82;101116.66;4838352;29;947;-64
2021/04/19 09:22:35;;;;;;;;;;;;;;;17.95;59.53;101125.28;4838457;29;1364;-64
2021/04/19 09:25:03;;;;;;;;;;;;;;;17.94;59.49;101117.44;4837924;29;1899;-65
2021/04/19 09:27:42;;;;;;;;;;;;;;;17.95;59.66;101116.50;4838694;29;1306;-66
2021/04/19 09:30:27;;;;;;;;;;;;;;;17.96;60.14;101118.22;4802223;29;837;-63
2021/04/19 09:33:03;;;;;;;;;;;;;;;17.97;59.58;101123.41;4815500;29;1417;-65
2021/04/19 09:35:42;;;;;;;;;;;;;;;17.96;59.76;101124.34;4801671;29;1172;-63
2021/04/19 09:38:09;;;;;;;;;;;;;;;17.97;59.93;101118.16;4801178;29;1302;-62
2021/04/19 09:40:48;;;;;;;;;;;;;;;17.98;59.90;101113.72;4801632;29;1161;-64
2021/04/19 09:43:30;;;;;;;;;;;;;;;17.97;59.84;101120.78;4801975;29;1537;-64
2021/04/19 09:45:58;;;;;;;;;;;;;;;17.97;59.95;101123.41;4801217;29;1911;-62
2021/04/19 09:48:41;;;;;;;;;;;;;;;17.97;60.01;101123.41;4801499;29;797;-62
2021/04/19 09:51:12;;;;;;;;;;;;;;;17.96;59.97;101116.44;4801635;29;1409;-64
2021/04/19 09:53:39;;;;;;;;;;;;;;;17.98;59.99;101124.28;4801875;29;785;-65
2021/04/19 09:56:06;;;;;;;;;;;;;;;17.98;59.85;101117.22;4799399;29;1278;-63
2021/04/19 09:58:36;;;;;;;;;;;;;;;17.99;59.97;101108.38;4801568;29;874;-64
2021/04/19 10:01:02;;;;;;;;;;;;;;;17.99;60.10;101111.00;4801075;29;1361;-62
2021/04/19 10:03:29;;;;;;;;;;;;;;;18.00;59.88;101103.97;4799832;29;1176;-66
2021/04/19 10:05:59;;;;;;;;;;;;;;;17.99;60.13;101108.38;4801131;29;1907;-63
2021/04/19 10:08:27;;;;;;;;;;;;;;;17.99;60.36;101108.38;4801248;29;846;-65
2021/04/19 10:10:54;;;;;;;;;;;;;;;18.00;60.16;101103.97;4801247;29;1090;-64
2021/04/19 10:13:36;;;;;;;;;;;;;;;17.99;60.32;101105.72;4801367;29;1223;-64
2021/04/19 10:16:08;;;;;;;;;;;;;;;17.99;60.19;101102.28;4800007;29;1389;-64
2021/04/19 10:18:36;;;;;;;;;;;;;;;17.99;60.16;101105.72;4801147;29;790;-65
2021/04/19 10:21:03;;;;;;;;;;;;;;;17.97;59.94;101104.97;4800914;29;1294;-65
2021/04/19 10:23:38;;;;;;;;;;;;;;;17.99;60.36;101094.38;4801235;29;1261;-63
2021/04/19 10:26:05;;;;;;;;;;;;;;;17.96;59.89;101097.97;4800929;29;1970;-64
2021/04/19 10:28:41;;;;;;;;;;;;;;;17.99;60.14;101103.09;4815295;29;1353;-64
2021/04/19 10:31:09;;;;;;;;;;;;;;;17.98;60.38;101095.28;4837506;29;1305;-64
2021/04/19 10:33:35;;;;;;;;;;;;;;;17.97;60.73;101097.06;4837717;29;766;-65
2021/04/19 10:36:15;;;;;;;;;;;;;;;17.98;59.94;101097.91;4836602;29;1244;-65
2021/04/19 10:38:41;;;;;;;;;;;;;;;17.98;60.09;101097.91;4835735;29;1249;-64
2021/04/19 10:41:08;;;;;;;;;;;;;;;17.99;60.11;101097.00;4835707;29;1398;-63
2021/04/19 10:43:34;;;;;;;;;;;;;;;18.14;60.40;101095.41;4836746;29;1334;-65
2021/04/19 10:46:18;;;;;;;;;;;;;;;18.07;60.53;101093.97;4836944;29;1972;-62
2021/04/19 10:48:44;;;;;;;;;;;;;;;17.99;57.92;101097.81;4837080;29;1038;-63
2021/04/19 10:51:16;;;;;;;;;;;;;;;17.93;56.77;101092.84;4836807;29;1402;-63
2021/04/19 10:53:42;;;;;;;;;;;;;;;17.95;56.31;101087.53;4837262;29;855;-68
2021/04/19 10:56:10;;;;;;;;;;;;;;;17.93;56.85;101077.03;4835372;29;1312;-69
2021/04/19 10:58:37;;;;;;;;;;;;;;;17.98;58.79;101067.16;4837097;29;809;-68
2021/04/19 11:01:05;;;;;;;;;;;;;;;18.05;58.85;101074.75;4836339;29;1298;-65
2021/04/19 11:03:36;;;;;;;;;;;;;;;18.09;58.82;101076.31;4836958;29;855;-62
2021/04/19 11:06:05;;;;;;;;;;;;;;;18.07;58.62;101072.88;4836834;29;1970;-63
2021/04/19 11:08:50;;;;;;;;;;;;;;;18.06;58.54;101076.44;4836921;29;816;-63
2021/04/19 11:11:23;;;;;;;;;;;;;;;18.06;58.30;101071.16;4836810;29;1377;-63
2021/04/19 11:13:50;;;;;;;;;;;;;;;18.07;58.32;101064.97;4836817;29;1582;-61
2021/04/19 11:16:47;;;;;;;;;;;;;;;18.11;58.13;101059.50;4835339;29;1290;-63
2021/04/19 11:19:26;;;;;;;;;;;;;;;18.06;58.09;101063.25;4836618;29;777;-63
2021/04/19 11:21:53;;;;;;;;;;;;;;;18.02;57.99;101054.69;4837229;29;1250;-61
2021/04/19 11:24:19;;;;;;;;;;;;;;;18.00;57.66;101054.72;4835674;29;1008;-63
2021/04/19 11:26:48;;;;;;;;;;;;;;;17.99;57.67;101058.28;4835137;29;1980;-64
2021/04/19 11:29:33;;;;;;;;;;;;;;;17.99;57.28;101060.09;4824113;29;1351;-64
2021/04/19 11:32:00;;;;;;;;;;;;;;;18.00;57.13;101056.50;4817112;29;1296;-63
2021/04/19 11:34:33;;;;;;;;;;;;;;;17.98;56.91;101053.09;4818908;29;822;-62
2021/04/19 11:37:27;;;;;;;;;;;;;;;17.96;56.91;101050.53;4818677;29;1345;-63
2021/04/19 11:39:55;;;;;;;;;;;;;;;17.97;56.72;101051.38;4818789;29;819;-63
2021/04/19 11:42:35;;;;;;;;;;;;;;;18.06;57.05;101044.81;4816970;29;1421;-66
2021/04/19 11:45:03;;;;;;;;;;;;;;;18.02;56.27;101034.41;4816983;29;1927;-65
2021/04/19 11:47:33;;;;;;;;;;;;;;;18.00;56.46;101035.41;4818005;29;1367;-65
2021/04/19 11:50:00;;;;;;;;;;;;;;;18.01;56.17;101039.78;4820297;29;1435;-65
2021/04/19 11:52:26;;;;;;;;;;;;;;;18.09;56.16;101034.97;4821789;29;1431;-65
2021/04/19 11:54:52;;;;;;;;;;;;;;;18.08;56.71;101042.97;4819850;29;1135;-64
2021/04/19 11:57:19;;;;;;;;;;;;;;;18.13;56.38;101031.25;4821718;29;1295;-62
2021/04/19 11:59:45;;;;;;;;;;;;;;;18.17;56.39;101032.81;4821631;29;860;-66
2021/04/19 12:02:13;;;;;;;;;;;;;;;18.22;56.98;101051.03;4821564;29;1269;-65
2021/04/19 12:04:41;;;;;;;;;;;;;;;18.22;57.08;101027.31;4821582;29;809;-64
2021/04/19 12:07:08;;;;;;;;;;;;;;;18.23;57.72;101047.47;4819748;29;1994;-63
2021/04/19 12:09:55;;;;;;;;;;;;;;;18.30;58.33;101040.97;4820649;29;1634;-65
2021/04/19 12:12:21;;;;;;;;;;;;;;;18.28;59.23;101043.69;4819654;29;1270;-66
2021/04/19 12:14:47;;;;;;;;;;;;;;;18.22;59.24;101045.75;4820810;29;828;-64
2021/04/19 12:17:15;;;;;;;;;;;;;;;18.18;57.93;101041.59;4820625;29;1300;-65
2021/04/19 12:19:42;;;;;;;;;;;;;;;18.16;57.83;101039.03;4819868;29;907;-66
2021/04/19 12:22:08;;;;;;;;;;;;;;;18.16;58.23;101041.66;4820331;29;1304;-65
2021/04/19 12:24:36;;;;;;;;;;;;;;;18.20;58.50;101035.31;4821200;29;797;-60
2021/04/19 12:27:03;;;;;;;;;;;;;;;18.27;58.45;101038.50;4818872;29;1923;-63
2021/04/19 12:29:35;;;;;;;;;;;;;;;18.28;58.95;101041.03;4820999;29;1163;-62
2021/04/19 12:32:02;;;;;;;;;;;;;;;18.28;59.35;101041.03;4819639;29;1443;-63
2021/04/19 12:34:29;;;;;;;;;;;;;;;18.26;59.64;101037.63;4819754;29;801;-63
2021/04/19 12:36:59;;;;;;;;;;;;;;;18.26;60.21;101042.06;4821164;29;1373;-63
2021/04/19 12:39:26;;;;;;;;;;;;;;;18.28;60.64;101040.19;4819323;29;1218;-64
2021/04/19 12:41:53;;;;;;;;;;;;;;;18.28;60.72;101043.69;4821020;29;1640;-64
2021/04/19 12:44:24;;;;;;;;;;;;;;;18.28;60.88;101046.31;4821327;29;1144;-64
2021/04/19 12:46:51;;;;;;;;;;;;;;;18.27;61.23;101044.59;4819161;29;1962;-63
2021/04/19 12:49:20;;;;;;;;;;;;;;;18.28;61.18;101045.47;4820690;29;889;-63
2021/04/19 12:51:48;;;;;;;;;;;;;;;18.34;62.57;101040.72;4819484;29;1608;-61
2021/04/19 12:54:15;;;;;;;;;;;;;;;18.35;62.52;101049.50;4819622;29;850;-61
2021/04/19 12:56:49;;;;;;;;;;;;;;;18.33;62.14;101048.75;4819333;29;1364;-62
2021/04/19 12:59:16;;;;;;;;;;;;;;;18.30;62.68;101038.34;4819698;29;888;-63